Alnwick, United Kingdom
Current Conditions -  °F | °C
As of 1:50 AM on Thursday 18 Dec 2014 (Local Time) from EGQM Reporting Station
Broken Clouds Broken Clouds  
Wind Chill: 52°   Ceiling: 1300
Heat Index: 52°   Visibility: 6mi
Dew Point: 50°   Wind: 10mph
Humidity: 94%   Direction: 220°SW
Pressure: 29.5"   Gusts: NA
Location:  55.41°N, 1.71°W
Report Text: EGQM 180150Z AUTO 22009KT 9999 BKN013/// 11/10 Q0999
Loading
Personal Weather Stations






























Interactive Weather Map New forecast layout! Learn more

10-Day Weather Forecast

Advertisements
Track Severe Weather on mobile